Big Bear Station Historical Data
Daily Summary for May 5, 2017 Units:  English    Metric   Both
« Previous Day
Next Day »
Daily Weekly Monthly Yearly Custom
  High: Low: Average:
Temperature: 73.0 °F 44.2 °F 57 °F
Dew Point: 39.5 °F 24.3 °F 31.8 °F
Humidity: 70 % 22 % 41 %
Wind Speed: 8.9 mph 0.0 mph 1.9 mph
Wind Gust: -999.0 mph - -
Wind:- - SSW
Pressure: 30.18 in 29.99 in -
Precipitation: 0.00 in    
Historical Graphs
 
 
Tabular Data for May 5, 2017
Time Temperature Dew Point Pressure Wind Wind Speed Wind Gust Humidity Rainfall Rate (Hourly)
00:13 51.4 °F 35.3 °F 30.18 in Calm   -999.0 mph 54 % 0 in
00:29 50.5 °F 34.9 °F 30.18 in Calm   -999.0 mph 55 % 0 in
00:44 50.0 °F 33.5 °F 30.18 in South 1.7 mph -999.0 mph 53 % 0 in
00:59 49.5 °F 34.0 °F 30.17 in Calm   -999.0 mph 55 % 0 in
01:14 49.1 °F 35.4 °F 30.17 in South 1.7 mph -999.0 mph 59 % 0 in
01:29 48.9 °F 38.4 °F 30.17 in South 1.7 mph -999.0 mph 67 % 0 in
01:45 48.7 °F 39.0 °F 30.16 in South 2.2 mph -999.0 mph 69 % 0 in
02:00 48.4 °F 39.1 °F 30.15 in Calm   -999.0 mph 70 % 0 in
02:15 48.2 °F 36.6 °F 30.15 in South 2.2 mph -999.0 mph 64 % 0 in
02:30 47.7 °F 35.3 °F 30.15 in Calm   -999.0 mph 62 % 0 in
02:45 47.3 °F 34.5 °F 30.15 in Calm   -999.0 mph 61 % 0 in
03:01 47.3 °F 31.0 °F 30.14 in Calm   -999.0 mph 53 % 0 in
03:16 46.9 °F 30.7 °F 30.14 in Calm   -999.0 mph 53 % 0 in
03:31 46.6 °F 28.9 °F 30.14 in Calm   -999.0 mph 50 % 0 in
03:46 46.4 °F 28.8 °F 30.13 in Calm   -999.0 mph 50 % 0 in
04:02 46.2 °F 27.1 °F 30.13 in Calm   -999.0 mph 47 % 0 in
04:17 46.2 °F 28.1 °F 30.13 in Calm   -999.0 mph 49 % 0 in
04:32 46.2 °F 31.4 °F 30.13 in South 1.1 mph -999.0 mph 56 % 0 in
04:47 46.0 °F 32.0 °F 30.13 in SSE 1.7 mph -999.0 mph 58 % 0 in
05:02 46.2 °F 28.6 °F 30.13 in South 2.7 mph -999.0 mph 50 % 0 in
05:18 45.3 °F 27.7 °F 30.12 in SSE 1.7 mph -999.0 mph 50 % 0 in
05:33 45.3 °F 27.3 °F 30.12 in South 2.2 mph -999.0 mph 49 % 0 in
05:48 45.1 °F 27.6 °F 30.12 in South 1.7 mph -999.0 mph 50 % 0 in
06:03 44.6 °F 29.0 °F 30.12 in South 1.7 mph -999.0 mph 54 % 0 in
06:18 44.4 °F 29.7 °F 30.12 in SSE 1.7 mph -999.0 mph 56 % 0 in
06:34 44.2 °F 29.5 °F 30.12 in Calm   -999.0 mph 56 % 0 in
06:49 44.4 °F 29.7 °F 30.12 in SSE 1.7 mph -999.0 mph 56 % 0 in
07:04 45.0 °F 31.9 °F 30.13 in Calm   -999.0 mph 60 % 0 in
07:19 45.1 °F 34.0 °F 30.12 in Calm   -999.0 mph 65 % 0 in
07:34 46.4 °F 36.4 °F 30.12 in Calm   -999.0 mph 68 % 0 in
07:50 46.9 °F 35.7 °F 30.12 in Calm   -999.0 mph 65 % 0 in
08:05 48.4 °F 36.0 °F 30.12 in Calm   -999.0 mph 62 % 0 in
08:20 50.7 °F 37.3 °F 30.12 in Calm   -999.0 mph 60 % 0 in
08:35 52.5 °F 39.0 °F 30.12 in Calm   -999.0 mph 60 % 0 in
08:50 55.0 °F 35.7 °F 30.12 in Calm   -999.0 mph 48 % 0 in
09:06 58.6 °F 31.0 °F 30.12 in Calm   -999.0 mph 35 % 0 in
09:21 62.6 °F 26.3 °F 30.12 in NW 2.7 mph -999.0 mph 25 % 0 in
09:36 64.6 °F 28.0 °F 30.12 in WNW 3.2 mph -999.0 mph 25 % 0 in
09:52 65.8 °F 27.0 °F 30.12 in NW 2.7 mph -999.0 mph 23 % 0 in
10:07 67.1 °F 27.0 °F 30.13 in NNW 8.9 mph -999.0 mph 22 % 0 in
10:22 67.8 °F 27.6 °F 30.12 in ESE 2.2 mph -999.0 mph 22 % 0 in
10:37 68.2 °F 29.0 °F 30.12 in SW 5.8 mph -999.0 mph 23 % 0 in
10:53 69.1 °F 28.6 °F 30.13 in NE 2.7 mph -999.0 mph 22 % 0 in
11:08 70.2 °F 29.6 °F 30.13 in South 4.7 mph -999.0 mph 22 % 0 in
11:24 70.7 °F 31.1 °F 30.13 in NNW 5.3 mph -999.0 mph 23 % 0 in
11:39 72.9 °F 31.8 °F 30.12 in WSW 3.2 mph -999.0 mph 22 % 0 in
11:54 72.0 °F 31.1 °F 30.12 in SSW 2.2 mph -999.0 mph 22 % 0 in
12:09 72.5 °F 31.5 °F 30.12 in North 4.7 mph -999.0 mph 22 % 0 in
12:25 71.6 °F 31.8 °F 30.12 in NW 6.3 mph -999.0 mph 23 % 0 in
12:40 73.0 °F 31.9 °F 30.12 in South 5.3 mph -999.0 mph 22 % 0 in
12:55 73.0 °F 33.0 °F 30.11 in SSW 4.2 mph -999.0 mph 23 % 0 in
13:10 70.0 °F 31.5 °F 30.11 in SSE 4.7 mph -999.0 mph 24 % 0 in
13:25 71.1 °F 32.5 °F 30.11 in SSE 3.7 mph -999.0 mph 24 % 0 in
13:41 69.8 °F 31.4 °F 30.10 in NW 2.2 mph -999.0 mph 24 % 0 in
13:56 70.2 °F 32.7 °F 30.09 in WSW 3.7 mph -999.0 mph 25 % 0 in
14:11 68.4 °F 32.2 °F 30.09 in SSE 2.2 mph -999.0 mph 26 % 0 in
14:26 68.2 °F 31.0 °F 30.09 in South 4.7 mph -999.0 mph 25 % 0 in
14:42 71.4 °F 32.7 °F 30.09 in NNE 2.2 mph -999.0 mph 24 % 0 in
14:58 69.4 °F 32.0 °F 30.08 in South 3.7 mph -999.0 mph 25 % 0 in
15:13 67.1 °F 32.0 °F 30.08 in SSW 2.7 mph -999.0 mph 27 % 0 in
15:28 66.7 °F 31.7 °F 30.07 in SE 1.7 mph -999.0 mph 27 % 0 in
15:44 67.3 °F 33.1 °F 30.06 in South 3.2 mph -999.0 mph 28 % 0 in
15:59 66.2 °F 33.0 °F 30.06 in SSW 3.2 mph -999.0 mph 29 % 0 in
16:14 65.3 °F 34.7 °F 30.06 in SSE 3.2 mph -999.0 mph 32 % 0 in
16:29 65.5 °F 36.4 °F 30.05 in WNW 3.2 mph -999.0 mph 34 % 0 in
16:45 65.3 °F 36.9 °F 30.05 in NNW 2.7 mph -999.0 mph 35 % 0 in
17:00 65.1 °F 39.5 °F 30.05 in NNE 2.7 mph -999.0 mph 39 % 0 in
17:15 65.1 °F 32.9 °F 30.05 in WNW 4.2 mph -999.0 mph 30 % 0 in
17:30 64.9 °F 35.9 °F 30.04 in SE 1.1 mph -999.0 mph 34 % 0 in
17:46 64.4 °F 36.1 °F 30.04 in NNE 4.7 mph -999.0 mph 35 % 0 in
18:01 63.1 °F 35.7 °F 30.04 in NNW 2.7 mph -999.0 mph 36 % 0 in
18:17 62.2 °F 36.3 °F 30.04 in NNW 2.7 mph -999.0 mph 38 % 0 in
18:32 61.3 °F 31.9 °F 30.03 in SSW 2.2 mph -999.0 mph 33 % 0 in
18:47 61.7 °F 32.3 °F 30.02 in Calm   -999.0 mph 33 % 0 in
19:02 60.4 °F 31.2 °F 30.02 in ESE 2.7 mph -999.0 mph 33 % 0 in
19:17 58.6 °F 35.6 °F 30.02 in NE 2.2 mph -999.0 mph 42 % 0 in
19:33 57.2 °F 35.5 °F 30.02 in NW 1.1 mph -999.0 mph 44 % 0 in
19:48 56.1 °F 35.0 °F 30.02 in NNW 1.1 mph -999.0 mph 45 % 0 in
20:03 55.2 °F 35.3 °F 30.02 in Calm   -999.0 mph 47 % 0 in
20:18 54.5 °F 34.7 °F 30.02 in Calm   -999.0 mph 47 % 0 in
20:34 53.4 °F 33.7 °F 30.03 in Calm   -999.0 mph 47 % 0 in
20:49 52.7 °F 33.0 °F 30.02 in Calm   -999.0 mph 47 % 0 in
21:04 52.0 °F 29.6 °F 30.03 in Calm   -999.0 mph 42 % 0 in
21:20 52.2 °F 27.3 °F 30.02 in Calm   -999.0 mph 38 % 0 in
21:35 52.2 °F 26.7 °F 30.02 in Calm   -999.0 mph 37 % 0 in
21:50 53.4 °F 25.7 °F 30.02 in Calm   -999.0 mph 34 % 0 in
22:05 52.7 °F 25.8 °F 30.02 in South 1.7 mph -999.0 mph 35 % 0 in
22:21 52.9 °F 25.3 °F 30.01 in Calm   -999.0 mph 34 % 0 in
22:36 52.7 °F 25.1 °F 30.01 in South 2.2 mph -999.0 mph 34 % 0 in
22:51 51.8 °F 24.3 °F 30.01 in South 1.7 mph -999.0 mph 34 % 0 in
23:06 51.3 °F 25.2 °F 30.00 in South 1.7 mph -999.0 mph 36 % 0 in
23:21 50.2 °F 25.6 °F 30.00 in South 2.2 mph -999.0 mph 38 % 0 in
23:37 49.6 °F 26.3 °F 29.99 in South 2.2 mph -999.0 mph 40 % 0 in
23:52 49.3 °F 25.4 °F 29.99 in South 2.7 mph -999.0 mph 39 % 0 in
Big Bear CA Weather
Compliments of Weather Underground - 1.5 mb